Tiempo atmosférico en la estación meteorológica de Frontera, Sabinosa, Santa Cruz de Tenerife (20 m.)



Fecha
DESCASC
Temp. máxima en grados centígrados (hora)
DESCASC
Temp. mínima en grados centígrados (hora)
DESCASC
Temp. media en grados centígrados
DESCASC
Racha de viento máxima en m/sg (hora)
DESCASC
Velocidad máxima media en intervalos de 10 minutos(hora)
DESCASC
Precipitaciones diarias en mm
DESCASC
Precipitaciones de 00:00 a 06:00 en mm
DESCASC
Precipitaciones de 06:00 a 12:00 en mm
DESCASC
Precipitaciones de 12:00 a 18:00 en mm
DESCASC
Precipitaciones de 18:00 a 24:00 en mm
DESCASC
02-08-2020 27.2 (14:10) 22 (07:30) 24.6 9.72 (23:59) 5.28 (23:59) 0 0 0 0 0
01-08-2020 25 (18:00) 22.5 (03:00) 23.8 8.61 (06:50) 5 (06:50) 0 0 0 0 0
31-07-2020 23.9 (15:50) 21.8 (07:00) 22.8 10.28 (04:00) 6.11 (04:10) 0 0 0 0 0
30-07-2020 25.7 (18:30) 21.6 (00:00) 23.7 11.67 (02:00) 6.11 (01:40) 0 0 0 0 0
29-07-2020 28.3 (16:50) 21.7 (00:00) 25 14.17 (12:20) 7.5 (11:40) 0 0 0 0 0
28-07-2020 25.5 (15:30) 22.2 (04:50) 23.9 11.67 (09:00) 6.67 (21:20) 0 0 0 0 0
27-07-2020 24.6 (18:00) 21.1 (00:00) 22.9 11.67 (11:10) 6.94 (11:00) 0 0 0 0 0
26-07-2020 25.9 (15:10) 21.4 (00:00) 23.6 12.5 (16:50) 6.67 (11:50) 0 0 0 0 0
25-07-2020 26.2 (15:00) 20.7 (06:00) 23.5 11.11 (21:30) 6.94 (21:40) 0 0 0 0 0
24-07-2020 26 (15:50) 21.1 (00:00) 23.6 12.5 (13:00) 6.67 (13:10) 0 0 0 0 0
23-07-2020 25.7 (14:30) 21.9 (00:00) 23.8 11.94 (13:50) 6.67 (14:10) 0 0 0 0 0
22-07-2020 26 (16:00) 22.2 (02:20) 24.1 11.94 (11:40) 6.39 (11:40) 0 0 0 0 0
21-07-2020 26.8 (16:40) 21.4 (00:00) 24.1 13.89 (10:50) 6.94 (11:10) 0 0 0 0 0
20-07-2020 26.7 (14:00) 22.3 (07:20) 24.5 13.33 (15:20) 6.39 (10:10) 0 0 0 0 0
19-07-2020 28.6 (15:50) 22 (00:00) 25.3 7.22 (19:50) 3.89 (17:10) 0 0 0 0 0
18-07-2020 27.1 (17:00) 21.4 (00:00) 24.3 5.83 (16:00) 3.89 (13:50) 0 0 0 0 0
17-07-2020 25.4 (16:00) 21.7 (00:00) 23.6 7.22 (05:20) 3.89 (03:00) 0 0 0 0 0
16-07-2020 25.7 (14:20) 21.4 (00:00) 23.6 9.72 (02:50) 5.83 (04:30) 0 0 0 0 0
15-07-2020 27.9 (15:10) 21.1 (07:50) 24.5 11.11 (19:30) 6.67 (19:50) 0 0 0 0 0
14-07-2020 26.6 (17:00) 20.5 (00:00) 23.6 12.5 (20:10) 6.94 (20:10) 0 0 0 0 0
13-07-2020 25.2 (15:20) 21.4 (06:10) 23.3 10.28 (01:50) 6.11 (22:30) 0 0 0 0 0
12-07-2020 24.9 (14:50) 21.4 (05:10) 23.1 10.28 (10:10) 5.28 (01:30) 0 0 0 0 0
11-07-2020 25.7 (15:50) 21.6 (05:40) 23.7 11.67 (03:10) 6.11 (21:50) 0 0 0 0 0
10-07-2020 25.8 (14:40) 20.8 (00:00) 23.3 11.11 (19:40) 6.11 (12:00) 0 0 0 0 0
09-07-2020 25.4 (14:20) 21.3 (07:20) 23.3 10.28 (12:20) 5.83 (12:20) 0 0 0 0 0
08-07-2020 26.2 (15:20) 21.3 (06:00) 23.8 12.5 (11:30) 5.83 (11:10) 0 0 0 0 0

Gráficas

Temp. máximas Temp. mínimas Temp. medias Precipitaciones Rachas de viento máximas Velocidades máximas media en intervalos de 10 minutos

Datos horarios

Fecha y hora oficial Temperatura (ºC) Velocidad del viento (km/h) Dirección del viento Racha (km/h) Dirección de racha Precipitación (mm) Presión (hPa) Tendencia (hPa) Humedad (%)
2020-08-06 23:00:00 23.8 10 Sudeste 18 Sudeste 0 -- -- 76
2020-08-06 22:00:00 23.9 7 Este 13 Este 0 -- -- 75
2020-08-06 21:00:00 24 7 Nordeste 13 Nordeste 0 -- -- 75
2020-08-06 20:00:00 24.3 6 Este 12 Este 0 -- -- 73
2020-08-06 19:00:00 24.6 5 Nordeste 11 Nordeste 0 -- -- 70
2020-08-06 18:00:00 25.4 8 Nordeste 16 Este 0 -- -- 69
2020-08-06 17:00:00 25.9 6 Este 17 Este 0 -- -- 65
2020-08-06 16:00:00 25.9 6 Este 21 Este 0 -- -- 67
2020-08-06 15:00:00 25.9 9 Nordeste 22 Nordeste 0 -- -- 67
2020-08-06 14:00:00 26.3 9 Nordeste 15 Nordeste 0 -- -- 64
2020-08-06 13:00:00 26.1 7 Nordeste 20 Nordeste 0 -- -- 66
2020-08-06 12:00:00 25.3 9 Nordeste 23 Nordeste 0 -- -- 68
2020-08-06 11:00:00 24.1 8 Este 14 Este 0 -- -- 73
2020-08-06 10:00:00 23.5 9 Nordeste 14 Nordeste 0 -- -- 78
2020-08-06 09:00:00 23.4 4 Nordeste 15 Nordeste 0 -- -- 73
2020-08-06 08:00:00 22.6 2 Este 14 Sudeste 0 -- -- 75
2020-08-06 07:00:00 22.6 6 Sur 14 Sur 0 -- -- 74
2020-08-06 06:00:00 22.3 11 Sur 18 Sudeste 0 -- -- 73
2020-08-06 05:00:00 22.5 8 Este 22 Este 0 -- -- 77
2020-08-06 04:00:00 22.5 15 Este 27 Este 0 -- -- 77
2020-08-06 03:00:00 22.6 17 Nordeste 27 Nordeste 0 -- -- 80
2020-08-06 02:00:00 22.7 13 Nordeste 25 Nordeste 0 -- -- 81
2020-08-06 01:00:00 23 10 Este 20 Este 0 -- -- 77
2020-08-06 00:00:00 23 11 Este 27 Este 0 -- -- 76
2020-08-05 23:00:00 23.4 10 Este 20 Sudeste 0 -- -- 77
2020-08-05 22:00:00 23.5 10 Este 20 Sudeste 0 -- -- 76
2020-08-05 21:00:00 23.6 14 Este 25 Este 0 -- -- 78
2020-08-05 20:00:00 24.2 9 Este 19 Este 0 -- -- 76
2020-08-05 19:00:00 24.6 10 Este 19 Este 0 -- -- 71
2020-08-05 18:00:00 24.9 9 Este 13 Este 0 -- -- 73
2020-08-05 17:00:00 25.7 9 Este 19 Este 0 -- -- 69
2020-08-05 16:00:00 25.6 10 Este 23 Nordeste 0 -- -- 69
2020-08-05 15:00:00 25.5 13 Este 24 Nordeste 0 -- -- 68
2020-08-05 14:00:00 25.4 11 Este 31 Nordeste 0 -- -- 69
2020-08-05 13:00:00 24.9 16 Nordeste 26 Nordeste 0 -- -- 71
2020-08-05 12:00:00 24.5 13 Nordeste 22 Este 0 -- -- 73
2020-08-05 11:00:00 23.4 15 Nordeste 28 Nordeste 0 -- -- 76
2020-08-05 10:00:00 23 16 Nordeste 30 Nordeste 0 -- -- 77
2020-08-05 09:00:00 22.8 17 Nordeste 28 Nordeste 0 -- -- 77
2020-08-05 08:00:00 22.2 13 Sudeste 21 Este 0 -- -- 77
2020-08-05 07:00:00 22.3 10 Este 32 Nordeste 0 -- -- 78
2020-08-05 06:00:00 22.6 21 Nordeste 35 Este 0 -- -- 80
2020-08-05 05:00:00 22.4 9 Este 24 Nordeste 0 -- -- 79
2020-08-05 04:00:00 22.1 11 Sudeste 24 Nordeste 0 -- -- 78
2020-08-05 03:00:00 22.7 17 Este 30 Nordeste 0 -- -- 79
2020-08-05 02:00:00 22.9 18 Este 29 Nordeste 0 -- -- 79
2020-08-05 01:00:00 22.7 13 Este 31 Este 0 -- -- 77
2020-08-05 00:00:00 22.7 13 Este 25 Este 0 -- -- 75
2020-08-04 23:00:00 22.9 11 Este 26 Nordeste 0 -- -- 77
2020-08-04 22:00:00 23.1 15 Este 35 Nordeste 0 -- -- 77
2020-08-04 21:00:00 23.5 18 Este 32 Nordeste 0 -- -- 78
2020-08-04 20:00:00 24.4 15 Este 27 Sudeste 0 -- -- 75
2020-08-04 19:00:00 24.9 15 Este 25 Este 0 -- -- 72
2020-08-04 18:00:00 24.6 13 Este 28 Nordeste 0 -- -- 75
2020-08-04 17:00:00 24.8 17 Nordeste 40 Nordeste 0 -- -- 72
2020-08-04 16:00:00 25.4 14 Nordeste 34 Nordeste 0 -- -- 71
2020-08-04 15:00:00 25.9 18 Nordeste 34 Este 0 -- -- 69
2020-08-04 14:00:00 25.7 15 Nordeste 35 Nordeste 0 -- -- 70
2020-08-04 13:00:00 25.5 14 Este 46 Este 0 -- -- 68
2020-08-04 12:00:00 24.7 19 Nordeste 32 Nordeste 0 -- -- 71
2020-08-04 11:00:00 24.7 18 Nordeste 24 Nordeste 0 -- -- 73
2020-08-04 10:00:00 23.3 10 Este 32 Sudeste 0 -- -- 73
2020-08-04 09:00:00 23 12 Sudeste 26 Sudeste 0 -- -- 71
2020-08-04 08:00:00 20.7 11 Sudeste 19 Sudeste 0 -- -- 75
2020-08-04 07:00:00 21.3 13 Sudeste 23 Este 0 -- -- 77
2020-08-04 06:00:00 20.9 9 Sudeste 23 Sudeste 0 -- -- 77
2020-08-04 05:00:00 21.2 15 Sudeste 21 Sudeste 0 -- -- 78
2020-08-04 04:00:00 21.4 10 Sudeste 24 Sudeste 0 -- -- 78
2020-08-04 03:00:00 21.6 14 Sudeste 25 Este 0 -- -- 80
2020-08-04 02:00:00 21.5 17 Sur 26 Sur 0 -- -- 78
2020-08-04 01:00:00 21.5 10 Sudeste 22 Sudeste 0 -- -- 79
2020-08-04 00:00:00 21.6 12 Sudeste 22 Sudeste 0 -- -- 77
2020-08-03 23:00:00 22 12 Este 22 Este 0 -- -- 79
2020-08-03 22:00:00 22.2 7 Sudeste 30 Nordeste 0 -- -- 76
2020-08-03 21:00:00 22.9 17 Este 33 Este 0 -- -- 79
2020-08-03 20:00:00 23.5 10 Este 24 Este 0 -- -- 75
2020-08-03 19:00:00 24.2 10 Este 31 Este 0 -- -- 75
2020-08-03 18:00:00 24.2 19 Este 39 Este 0 -- -- 75
2020-08-03 17:00:00 24.9 17 Este 33 Nordeste 0 -- -- 72
2020-08-03 16:00:00 25.6 19 Este 34 Nordeste 0 -- -- 70
2020-08-03 15:00:00 24.7 16 Nordeste 38 Nordeste 0 -- -- 73
2020-08-03 14:00:00 24.8 22 Nordeste 43 Nordeste 0 -- -- 74
2020-08-03 13:00:00 25.5 19 Nordeste 34 Este 0 -- -- 72
2020-08-03 12:00:00 25.2 18 Este 32 Nordeste 0 -- -- 74
2020-08-03 11:00:00 24.7 20 Nordeste 36 Nordeste 0 -- -- 74
2020-08-03 10:00:00 24.7 15 Este 31 Nordeste 0 -- -- 75
2020-08-03 09:00:00 23.6 14 Este 27 Este 0 -- -- 79
2020-08-03 08:00:00 22.3 14 Sudeste 25 Sudeste 0 -- -- 82
2020-08-03 07:00:00 22.2 12 Sudeste 21 Sudeste 0 -- -- 82
2020-08-03 06:00:00 22.4 14 Sudeste 23 Sudeste 0 -- -- 82
2020-08-03 05:00:00 22.6 14 Sudeste 26 Sudeste 0 -- -- 81
2020-08-03 04:00:00 22.6 9 Este 19 Sudeste 0 -- -- 81
2020-08-03 03:00:00 22.6 9 Sudeste 23 Sudeste 0 -- -- 80
2020-08-03 02:00:00 22.8 10 Sudeste 20 Este 0 -- -- 80
2020-08-03 01:00:00 23.2 14 Este 37 Nordeste 0 -- -- 81
2020-08-03 00:00:00 23.3 19 Nordeste 35 Nordeste 0 -- -- 82
2020-08-02 23:00:00 23.5 17 Este 28 Este 0 -- -- 80
2020-08-02 22:00:00 23.7 10 Este 25 Este 0 -- -- 78
2020-08-02 21:00:00 24 11 Este 31 Este 0 -- -- 77
2020-08-02 20:00:00 24.2 16 Este 31 Nordeste 0 -- -- 77
2020-08-02 19:00:00 24.5 18 Este 31 Nordeste 0 -- -- 75
2020-08-02 18:00:00 25.5 11 Este 25 Este 0 -- -- 72
2020-08-02 17:00:00 25.6 10 Este 23 Este 0 -- -- 73
2020-08-02 16:00:00 25.9 11 Este 27 Este 0 -- -- 72
2020-08-02 15:00:00 26.6 17 Este 30 Nordeste 0 -- -- 69
2020-08-02 14:00:00 26.5 15 Este 28 Nordeste 0 -- -- 70
2020-08-02 13:00:00 26.8 13 Este 25 Nordeste 0 -- -- 70
2020-08-02 12:00:00 25.8 15 Nordeste 26 Nordeste 0 -- -- 72
2020-08-02 11:00:00 25 14 Nordeste 25 Nordeste 0 -- -- 75
2020-08-02 10:00:00 24.2 12 Nordeste 26 Nordeste 0 -- -- 77
2020-08-02 09:00:00 23.1 6 Sudoeste 15 Sur 0 -- -- 78
2020-08-02 08:00:00 22.1 7 Sur 16 Sudeste 0 -- -- 82
2020-08-02 07:00:00 22.2 9 Sur 14 Sur 0 -- -- 81
2020-08-02 06:00:00 22.4 9 Sur 17 Sudeste 0 -- -- 81
2020-08-02 05:00:00 22.5 4 Noroeste 21 Este 0 -- -- 81
2020-08-02 04:00:00 22.7 12 Nordeste 26 Nordeste 0 -- -- 83
2020-08-02 03:00:00 22.8 10 Este 30 Este 0 -- -- 83
2020-08-02 02:00:00 22.9 6 Este 18 Este 0 -- -- 82
2020-08-02 01:00:00 23 9 Este 18 Este 0 -- -- 83
2020-08-02 00:00:00 23.1 10 Este 25 Este 0 -- -- 82
2020-08-01 23:00:00 23.2 7 Sudeste 23 Este 0 -- -- 81
2020-08-01 22:00:00 23.4 12 Este 27 Nordeste 0 -- -- 79
2020-08-01 21:00:00 23.7 9 Este 20 Nordeste 0 -- -- 78
2020-08-01 20:00:00 24.5 8 Este 15 Este 0 -- -- 75
2020-08-01 19:00:00 24.7 7 Este 19 Este 0 -- -- 74
2020-08-01 18:00:00 25 11 Este 25 Nordeste 0 -- -- 74
2020-08-01 17:00:00 24.6 14 Este 28 Nordeste 0 -- -- 76
2020-08-01 16:00:00 24.4 15 Nordeste 27 Nordeste 0 -- -- 75
2020-08-01 15:00:00 24.1 13 Nordeste 22 Nordeste 0 -- -- 77
2020-08-01 14:00:00 24.2 12 Este 22 Nordeste 0 -- -- 77
2020-08-01 13:00:00 24.3 13 Nordeste 24 Nordeste 0 -- -- 77
2020-08-01 12:00:00 23.9 11 Nordeste 25 Nordeste 0 -- -- 79
2020-08-01 11:00:00 23.5 13 Nordeste 27 Nordeste 0 -- -- 79
2020-08-01 10:00:00 23.2 13 Nordeste 25 Nordeste 0 -- -- 79
2020-08-01 09:00:00 22.6 13 Nordeste 24 Nordeste 0 -- -- 82
2020-08-01 08:00:00 22.5 12 Nordeste 21 Nordeste 0 -- -- 82
2020-08-01 07:00:00 22.5 7 Nordeste 31 Nordeste 0 -- -- 82
2020-08-01 06:00:00 22.6 6 Nordeste 30 Norte 0 -- -- 82
2020-08-01 05:00:00 22.5 6 Nordeste 23 Nordeste 0 -- -- 81
2020-08-01 04:00:00 22.5 12 Nordeste 27 Nordeste 0 -- -- 81
2020-08-01 03:00:00 22.5 12 Nordeste 28 Nordeste 0 -- -- 80
2020-08-01 02:00:00 22.7 12 Este 24 Nordeste 0 -- -- 80
2020-08-01 01:00:00 22.7 13 Este 26 Norte 0 -- -- 80
2020-08-01 00:00:00 22.7 12 Nordeste 36 Nordeste 0 -- -- 80
2020-07-31 23:00:00 22.7 6 Este 30 Nordeste 0 -- -- 78
2020-07-31 22:00:00 22.8 7 Este 24 Este 0 -- -- 78
2020-07-31 21:00:00 22.9 10 Este 30 Nordeste 0 -- -- 77
2020-07-31 20:00:00 23 14 Nordeste 26 Nordeste 0 -- -- 75
2020-07-31 19:00:00 23.2 13 Nordeste 29 Este 0 -- -- 76
2020-07-31 18:00:00 23.6 13 Nordeste 31 Nordeste 0 -- -- 75
2020-07-31 17:00:00 23.8 14 Nordeste 30 Nordeste 0 -- -- 74
2020-07-31 16:00:00 23.9 15 Nordeste 27 Este 0 -- -- 73
2020-07-31 15:00:00 23.4 14 Nordeste 24 Nordeste 0 -- -- 73
2020-07-31 14:00:00 23.5 13 Nordeste 20 Este 0 -- -- 73
2020-07-31 13:00:00 23.2 13 Nordeste 25 Nordeste 0 -- -- 72
2020-07-31 12:00:00 23.1 12 Nordeste 26 Nordeste 0 -- -- 73
2020-07-31 11:00:00 23.2 12 Nordeste 26 Nordeste 0 -- -- 73
2020-07-31 10:00:00 22.8 11 Nordeste 24 Este 0 -- -- 75
2020-07-31 09:00:00 22.3 11 Este 22 Nordeste 0 -- -- 75
2020-07-31 08:00:00 21.9 8 Este 17 Este 0 -- -- 75
2020-07-31 07:00:00 21.8 6 Este 24 Nordeste 0 -- -- 74
2020-07-31 06:00:00 22.1 12 Nordeste 30 Nordeste 0 -- -- 75
2020-07-31 05:00:00 22.2 16 Nordeste 35 Nordeste 0 -- -- 75
2020-07-31 04:00:00 22.3 19 Nordeste 37 Nordeste 0 -- -- 75
2020-07-31 03:00:00 22.3 10 Este 19 Nordeste 0 -- -- 72
2020-07-31 02:00:00 22.5 12 Nordeste 24 Nordeste 0 -- -- 75
2020-07-31 01:00:00 22.6 15 Nordeste 32 Nordeste 0 -- -- 76
2020-07-31 00:00:00 22.6 19 Nordeste 37 Nordeste 0 -- -- 75
2020-07-30 23:00:00 22.7 16 Nordeste 29 Nordeste 0 -- -- 76
2020-07-30 22:00:00 22.8 18 Nordeste 29 Nordeste 0 -- -- 76
2020-07-30 21:00:00 22.9 17 Nordeste 34 Nordeste 0 -- -- 73
2020-07-30 20:00:00 23.7 17 Nordeste 31 Nordeste 0 -- -- 71
2020-07-30 19:00:00 24.7 14 Este 26 Sudeste 0 -- -- 68
2020-07-30 18:00:00 25.4 10 Este 17 Este 0 -- -- 64
2020-07-30 17:00:00 25 10 Este 18 Este 0 -- -- 65
2020-07-30 16:00:00 23.9 16 Nordeste 35 Nordeste 0 -- -- 69
2020-07-30 15:00:00 23.9 17 Nordeste 40 Este 0 -- -- 69
2020-07-30 14:00:00 23.5 17 Nordeste 39 Nordeste 0 -- -- 72
2020-07-30 13:00:00 23.9 9 Este 22 Este 0 -- -- 70
2020-07-30 12:00:00 23.4 12 Este 32 Nordeste 0 -- -- 70
2020-07-30 11:00:00 23 18 Nordeste 33 Nordeste 0 -- -- 71
2020-07-30 10:00:00 22.8 17 Este 36 Nordeste 0 -- -- 70
2020-07-30 09:00:00 22.6 19 Nordeste 31 Nordeste 0 -- -- 73
2020-07-30 08:00:00 21.7 11 Sudeste 17 Sudeste 0 -- -- 72
2020-07-30 07:00:00 22.4 10 Este 30 Sudeste 0 -- -- 72
2020-07-30 06:00:00 22.2 18 Este 35 Nordeste 0 -- -- 71
2020-07-30 05:00:00 22.1 16 Sudeste 24 Sudeste 0 -- -- 71
2020-07-30 04:00:00 22.4 13 Este 24 Este 0 -- -- 74
2020-07-30 03:00:00 22.6 14 Este 30 Este 0 -- -- 75
2020-07-30 02:00:00 22.7 21 Este 42 Este 0 -- -- 74
2020-07-30 01:00:00 22.5 13 Sudeste 27 Sudeste 0 -- -- 74
2020-07-30 00:00:00 22.9 10 Este 25 Este 0 -- -- 76
2020-07-29 23:00:00 23 14 Este 31 Este 0 -- -- 72
2020-07-29 22:00:00 22.9 15 Sudeste 26 Sudeste 0 -- -- 68
2020-07-29 21:00:00 23.4 13 Este 25 Este 0 -- -- 71
2020-07-29 20:00:00 24.7 14 Este 35 Nordeste 0 -- -- 68
2020-07-29 19:00:00 25.1 17 Este 36 Nordeste 0 -- -- 68
2020-07-29 18:00:00 26.3 10 Este 30 Este 0 -- -- 63
2020-07-29 17:00:00 27.7 13 Este 35 Nordeste 0 -- -- 61
2020-07-29 16:00:00 26.4 18 Nordeste 42 Nordeste 0 -- -- 63
2020-07-29 15:00:00 26.8 22 Este 46 Nordeste 0 -- -- 59
2020-07-29 14:00:00 26.5 24 Nordeste 47 Nordeste 0 -- -- 61
2020-07-29 13:00:00 26.3 25 Nordeste 51 Nordeste 0 -- -- 59
2020-07-29 12:00:00 25.7 23 Este 48 Nordeste 0 -- -- 65
2020-07-29 11:00:00 24.9 23 Nordeste 44 Este 0 -- -- 67
2020-07-29 10:00:00 24.9 15 Este 32 Nordeste 0 -- -- 68
2020-07-29 09:00:00 23.4 10 Nordeste 30 Nordeste 0 -- -- 68
2020-07-29 08:00:00 21.9 16 Sudeste 28 Este 0 -- -- 74
2020-07-29 07:00:00 22.1 21 Este 33 Este 0 -- -- 75
2020-07-29 06:00:00 22 17 Sudeste 30 Sudeste 0 -- -- 75
2020-07-29 05:00:00 21.8 13 Sudeste 29 Nordeste 0 -- -- 75
2020-07-29 04:00:00 22 10 Este 31 Sudeste 0 -- -- 76
2020-07-29 03:00:00 21.8 10 Sudeste 24 Sur 0 -- -- 76
2020-07-29 02:00:00 22.1 15 Sudeste 31 Nordeste 0 -- -- 75
2020-07-29 01:00:00 22.3 15 Este 33 Este 0 -- -- 77
2020-07-29 00:00:00 22.2 10 Sudeste 33 Nordeste 0 -- -- 75
2020-07-28 23:00:00 22.5 14 Este 38 Nordeste 0 -- -- 76
2020-07-28 22:00:00 22.6 22 Este 40 Nordeste 0 -- -- 75
2020-07-28 21:00:00 23.1 23 Nordeste 37 Nordeste 0 -- -- 74
2020-07-28 20:00:00 24.1 15 Este 33 Este 0 -- -- 72
2020-07-28 19:00:00 24.4 15 Este 27 Este 0 -- -- 72
2020-07-28 18:00:00 24.4 18 Este 36 Este 0 -- -- 74
2020-07-28 17:00:00 25.1 16 Este 35 Este 0 -- -- 69
2020-07-28 16:00:00 25 17 Este 29 Este 0 -- -- 70
2020-07-28 15:00:00 24.9 14 Este 33 Norte 0 -- -- 70
2020-07-28 14:00:00 24.1 17 Este 40 Nordeste 0 -- -- 73
2020-07-28 13:00:00 23.5 21 Nordeste 36 Nordeste 0 -- -- 76
2020-07-28 12:00:00 23.9 17 Nordeste 35 Este 0 -- -- 76
2020-07-28 11:00:00 23 19 Nordeste 33 Nordeste 0 -- -- 79
2020-07-28 10:00:00 22.7 22 Nordeste 38 Nordeste 0 -- -- 79
2020-07-28 09:00:00 22.5 22 Nordeste 42 Nordeste 0 -- -- 80
2020-07-28 08:00:00 22.3 12 Nordeste 27 Nordeste 0 -- -- 80
2020-07-28 07:00:00 22.3 19 Este 32 Este 0 -- -- 80
2020-07-28 06:00:00 22.4 13 Este 27 Nordeste 0 -- -- 80
2020-07-28 05:00:00 22.2 9 Este 23 Este 0 -- -- 78
2020-07-28 04:00:00 22.3 6 Este 28 Este 0 -- -- 78
2020-07-28 03:00:00 22.5 10 Este 31 Nordeste 0 -- -- 77
2020-07-28 02:00:00 22.4 7 Sudeste 34 Nordeste 0 -- -- 77
2020-07-28 01:00:00 22.4 12 Este 37 Nordeste 0 -- -- 76
2020-07-28 00:00:00 22.4 12 Este 31 Este 0 -- -- 76
2020-07-27 23:00:00 22.6 14 Este 39 Nordeste 0 -- -- 77
2020-07-27 22:00:00 22.8 14 Este 27 Este 0 -- -- 77
2020-07-27 21:00:00 22.9 16 Este 32 Nordeste 0 -- -- 77
2020-07-27 20:00:00 23.5 20 Nordeste 37 Nordeste 0 -- -- 76
2020-07-27 19:00:00 24 16 Este 32 Nordeste 0 -- -- 74
2020-07-27 18:00:00 24.6 12 Este 32 Nordeste 0 -- -- 71
2020-07-27 17:00:00 24.2 18 Nordeste 26 Este 0 -- -- 72
2020-07-27 16:00:00 24.1 16 Nordeste 37 Nordeste 0 -- -- 71
2020-07-27 15:00:00 24.3 15 Este 36 Nordeste 0 -- -- 70
2020-07-27 14:00:00 24.1 17 Nordeste 36 Nordeste 0 -- -- 72
2020-07-27 13:00:00 23.7 16 Nordeste 36 Nordeste 0 -- -- 73
2020-07-27 12:00:00 23.4 16 Nordeste 42 Nordeste 0 -- -- 73
2020-07-27 11:00:00 23.5 25 Nordeste 40 Nordeste 0 -- -- 74
2020-07-27 08:00:00 -- -- -- -- -- -- -- -- --
2020-07-27 07:00:00 21.2 10 Sudeste 27 Sudeste 0 -- -- 76
2020-07-27 06:00:00 21.6 10 Sudeste 30 Nordeste 0 -- -- 77
2020-07-27 05:00:00 22 19 Este 37 Nordeste 0 -- -- 79
2020-07-27 04:00:00 22 17 Este 32 Este 0 -- -- 78
2020-07-27 03:00:00 21.7 9 Este 21 Nordeste 0 -- -- 78
2020-07-27 02:00:00 22.2 15 Este 40 Nordeste 0 -- -- 78
2020-07-27 01:00:00 22.4 18 Este 33 Nordeste 0 -- -- 79
2020-07-27 00:00:00 22.5 17 Este 35 Este 0 -- -- 78
2020-07-26 23:00:00 22.6 16 Este 26 Nordeste 0 -- -- 78
2020-07-26 22:00:00 22.8 13 Este 35 Nordeste 0 -- -- 78
2020-07-26 21:00:00 23 20 Nordeste 42 Nordeste 0 -- -- 79
2020-07-26 20:00:00 23.5 22 Nordeste 44 Este 0 -- -- 77
2020-07-26 19:00:00 23.8 16 Nordeste 33 Nordeste 0 -- -- 75
2020-07-26 18:00:00 24.2 14 Este 29 Nordeste 0 -- -- 73
2020-07-26 17:00:00 24.3 21 Nordeste 45 Nordeste 0 -- -- 71
2020-07-26 16:00:00 25.5 17 Este 39 Nordeste 0 -- -- 67
2020-07-26 15:00:00 25.8 16 Nordeste 29 Nordeste 0 -- -- 67
2020-07-26 14:00:00 24.3 19 Nordeste 33 Nordeste 0 -- -- 72
2020-07-26 13:00:00 24.6 19 Nordeste 42 Nordeste 0 -- -- 71
2020-07-26 12:00:00 25.5 16 Este 39 Nordeste 0 -- -- 67
2020-07-26 11:00:00 25 15 Nordeste 33 Nordeste 0 -- -- 68
2020-07-26 10:00:00 24.4 16 Nordeste 31 Este 0 -- -- 71
2020-07-26 09:00:00 23.7 16 Este 28 Este 0 -- -- 73
2020-07-26 08:00:00 22 10 Este 30 Sudeste 0 -- -- 76
2020-07-26 07:00:00 21.6 16 Sudeste 25 Sudeste 0 -- -- 75
2020-07-26 06:00:00 22.1 7 Sudeste 26 Sudeste 0 -- -- 77
2020-07-26 05:00:00 21.6 10 Sudeste 23 Sudeste 0 -- -- 77
2020-07-26 04:00:00 21.4 10 Sur 24 Sur 0 -- -- 76
2020-07-26 03:00:00 21.9 8 Este 23 Nordeste 0 -- -- 78
2020-07-26 02:00:00 22 17 Nordeste 34 Nordeste 0 -- -- 79
2020-07-26 01:00:00 22.1 17 Este 33 Este 0 -- -- 79
2020-07-26 00:00:00 21.9 12 Este 33 Nordeste 0 -- -- 77
2020-07-25 23:00:00 22.1 15 Este 31 Nordeste 0 -- -- 78
2020-07-25 22:00:00 22.4 22 Nordeste 40 Nordeste 0 -- -- 78
2020-07-25 21:00:00 22.7 22 Nordeste 36 Este 0 -- -- 78
2020-07-25 20:00:00 23.3 15 Este 25 Nordeste 0 -- -- 75
2020-07-25 19:00:00 23.7 10 Este 32 Nordeste 0 -- -- 73
2020-07-25 18:00:00 24.2 19 Nordeste 31 Este 0 -- -- 74
2020-07-25 17:00:00 25.9 15 Este 28 Nordeste 0 -- -- 67
2020-07-25 16:00:00 26 16 Nordeste 26 Nordeste 0 -- -- 66
2020-07-25 15:00:00 26.2 17 Este 35 Nordeste 0 -- -- 66
2020-07-25 14:00:00 25.4 20 Nordeste 36 Nordeste 0 -- -- 67
2020-07-25 13:00:00 25.5 19 Nordeste 32 Nordeste 0 -- -- 67
2020-07-25 12:00:00 25.2 17 Nordeste 31 Nordeste 0 -- -- 69
2020-07-25 11:00:00 24.7 16 Nordeste 34 Nordeste 0 -- -- 67
2020-07-25 10:00:00 24.3 6 Sudeste 21 Este 0 -- -- 68
2020-07-25 09:00:00 22.8 9 Sur 20 Sudeste 0 -- -- 71
2020-07-25 08:00:00 21.1 11 Sur 29 Sudeste 0 -- -- 78
2020-07-25 07:00:00 20.9 8 Sudeste 24 Este 0 -- -- 78
2020-07-25 06:00:00 20.7 13 Sudeste 27 Sudeste 0 -- -- 78
2020-07-25 05:00:00 21.3 8 Sudeste 24 Sudeste 0 -- -- 78
2020-07-25 04:00:00 21.6 13 Sudeste 28 Este 0 -- -- 77
2020-07-25 03:00:00 21.6 14 Este 32 Este 0 -- -- 78
2020-07-25 02:00:00 21.6 9 Este 27 Nordeste 0 -- -- 78
2020-07-25 01:00:00 21.9 8 Este 36 Este 0 -- -- 78
2020-07-25 00:00:00 22.1 17 Este 36 Este 0 -- -- 79
2020-07-24 23:00:00 22.3 16 Este 29 Este 0 -- -- 78
2020-07-24 22:00:00 22.4 15 Este 32 Nordeste 0 -- -- 78
2020-07-24 21:00:00 22.8 17 Nordeste 38 Nordeste 0 -- -- 78
2020-07-24 20:00:00 23.3 18 Este 37 Nordeste 0 -- -- 75
2020-07-24 19:00:00 23.6 16 Nordeste 33 Este 0 -- -- 74
2020-07-24 18:00:00 23.8 11 Este 34 Nordeste 0 -- -- 74
2020-07-24 17:00:00 24.1 19 Nordeste 40 Nordeste 0 -- -- 72
2020-07-24 16:00:00 25.4 19 Nordeste 40 Nordeste 0 -- -- 67
2020-07-24 15:00:00 25.3 15 Nordeste 38 Nordeste 0 -- -- 67
2020-07-24 14:00:00 25 15 Nordeste 40 Nordeste 0 -- -- 70
2020-07-24 13:00:00 24.9 21 Este 45 Nordeste 0 -- -- 68
2020-07-24 12:00:00 25.7 17 Este 34 Este 0 -- -- 65
2020-07-24 11:00:00 23.4 15 Nordeste 32 Nordeste 0 -- -- 74
2020-07-24 10:00:00 24.2 15 Este 31 Sudeste 0 -- -- 70
2020-07-24 09:00:00 23.4 14 Este 23 Este 0 -- -- 70
2020-07-24 08:00:00 21.6 13 Este 28 Este 0 -- -- 78
2020-07-24 07:00:00 21.6 17 Este 34 Nordeste 0 -- -- 78
2020-07-24 06:00:00 21.2 10 Este 22 Sudeste 0 -- -- 78
2020-07-24 05:00:00 21.6 13 Este 26 Este 0 -- -- 79
2020-07-24 04:00:00 21.8 15 Este 34 Este 0 -- -- 78
2020-07-24 03:00:00 21.8 14 Este 25 Este 0 -- -- 79
2020-07-24 02:00:00 21.9 8 Este 28 Este 0 -- -- 78
2020-07-24 01:00:00 22.3 17 Este 28 Este 0 -- -- 80
2020-07-24 00:00:00 22 11 Este 27 Este 0 -- -- 78
2020-07-23 23:00:00 22.1 10 Sudeste 39 Este 0 -- -- 77
2020-07-23 22:00:00 22.4 18 Este 40 Nordeste 0 -- -- 79
2020-07-23 21:00:00 22.8 15 Este 30 Nordeste 0 -- -- 77
2020-07-23 20:00:00 23.1 17 Este 32 Nordeste 0 -- -- 78
2020-07-23 19:00:00 23.4 19 Nordeste 34 Este 0 -- -- 76
2020-07-23 18:00:00 24.3 19 Este 41 Nordeste 0 -- -- 73
2020-07-23 17:00:00 24.7 18 Este 33 Nordeste 0 -- -- 71
2020-07-23 16:00:00 25.5 17 Nordeste 36 Nordeste 0 -- -- 69
2020-07-23 15:00:00 25 19 Nordeste 37 Nordeste 0 -- -- 69
2020-07-23 14:00:00 24.9 23 Nordeste 43 Nordeste 0 -- -- 70
2020-07-23 13:00:00 25.2 19 Nordeste 37 Nordeste 0 -- -- 70
2020-07-23 12:00:00 23.8 22 Nordeste 37 Nordeste 0 -- -- 73
2020-07-23 11:00:00 23.9 22 Nordeste 38 Nordeste 0 -- -- 73
2020-07-23 10:00:00 23.9 21 Este 31 Este 0 -- -- 74
2020-07-23 09:00:00 23 15 Este 30 Nordeste 0 -- -- 77
2020-07-23 08:00:00 22.2 20 Nordeste 34 Nordeste 0 -- -- 78
2020-07-23 07:00:00 22 12 Este 25 Este 0 -- -- 79
2020-07-23 06:00:00 22.1 16 Este 31 Nordeste 0 -- -- 80
2020-07-23 05:00:00 22.3 17 Nordeste 38 Nordeste 0 -- -- 80
2020-07-23 04:00:00 22.5 21 Nordeste 39 Nordeste 0 -- -- 79
2020-07-23 03:00:00 22.6 16 Este 28 Nordeste 0 -- -- 78
2020-07-23 02:00:00 22.7 19 Este 28 Este 0 -- -- 79
2020-07-23 01:00:00 22.7 13 Este 37 Nordeste 0 -- -- 76
2020-07-23 00:00:00 22.9 18 Nordeste 39 Nordeste 0 -- -- 77
2020-07-22 23:00:00 22.9 14 Este 40 Nordeste 0 -- -- 76
2020-07-22 22:00:00 23.2 8 Sudeste 24 Este 0 -- -- 74
2020-07-22 21:00:00 23.4 11 Este 31 Este 0 -- -- 76
2020-07-22 20:00:00 23.6 20 Este 39 Este 0 -- -- 75
2020-07-22 19:00:00 24 18 Este 34 Nordeste 0 -- -- 73
2020-07-22 18:00:00 24.5 14 Este 29 Nordeste 0 -- -- 74
2020-07-22 17:00:00 25 15 Este 29 Nordeste 0 -- -- 70
2020-07-22 16:00:00 26 14 Este 29 Este 0 -- -- 65
2020-07-22 15:00:00 25.6 16 Este 31 Sudeste 0 -- -- 68
2020-07-22 14:00:00 25.5 14 Nordeste 36 Nordeste 0 -- -- 68
2020-07-22 13:00:00 25.3 18 Nordeste 36 Este 0 -- -- 65
2020-07-22 12:00:00 23.8 19 Nordeste 43 Nordeste 0 -- -- 72
2020-07-22 11:00:00 24.1 22 Nordeste 38 Nordeste 0 -- -- 71
2020-07-22 10:00:00 24 8 Este 30 Este 0 -- -- 69
2020-07-22 09:00:00 23.3 12 Este 24 Este 0 -- -- 71
2020-07-22 08:00:00 22.3 13 Sudeste 33 Nordeste 0 -- -- 73
2020-07-22 07:00:00 22.4 21 Nordeste 35 Este 0 -- -- 76
2020-07-22 06:00:00 22.4 14 Este 30 Este 0 -- -- 73
2020-07-22 05:00:00 22.5 13 Sudeste 29 Sudeste 0 -- -- 72
2020-07-22 04:00:00 22.2 8 Sudeste 24 Este 0 -- -- 72
2020-07-22 03:00:00 22.3 20 Nordeste 32 Este 0 -- -- 75
2020-07-22 02:00:00 22.3 10 Este 30 Este 0 -- -- 75
2020-07-22 01:00:00 22.5 17 Este 38 Este 0 -- -- 76
2020-07-22 00:00:00 22.7 21 Nordeste 35 Nordeste 0 -- -- 75
2020-07-21 23:00:00 22.7 18 Nordeste 33 Nordeste 0 -- -- 76
2020-07-21 22:00:00 22.7 14 Este 32 Nordeste 0 -- -- 74
2020-07-21 21:00:00 23.4 11 Este 31 Este 0 -- -- 72
2020-07-21 20:00:00 24.2 15 Este 37 Nordeste 0 -- -- 69
2020-07-21 19:00:00 24.6 11 Este 33 Nordeste 0 -- -- 67
2020-07-21 18:00:00 25.9 18 Este 28 Nordeste 0 -- -- 64
2020-07-21 17:00:00 26 16 Nordeste 31 Nordeste 0 -- -- 61
2020-07-21 16:00:00 25.1 17 Este 30 Norte 0 -- -- 67
2020-07-21 15:00:00 25.4 16 Este 35 Nordeste 0 -- -- 65
2020-07-21 14:00:00 25.2 19 Nordeste 40 Nordeste 0 -- -- 66
2020-07-21 13:00:00 25.6 20 Este 34 Nordeste 0 -- -- 63
2020-07-21 12:00:00 23.9 23 Nordeste 45 Nordeste 0 -- -- 69
2020-07-21 11:00:00 24 23 Nordeste 50 Este 0 -- -- 69
2020-07-21 10:00:00 23.6 21 Nordeste 33 Nordeste 0 -- -- 70
2020-07-21 09:00:00 23.1 17 Este 33 Nordeste 0 -- -- 72
2020-07-21 08:00:00 21.9 20 Este 42 Nordeste 0 -- -- 76
2020-07-21 07:00:00 21.9 15 Este 38 Nordeste 0 -- -- 77
2020-07-21 06:00:00 21.6 12 Sudeste 30 Este 0 -- -- 74
2020-07-21 05:00:00 21.9 17 Este 34 Este 0 -- -- 76
2020-07-21 04:00:00 21.4 13 Sudeste 27 Este 0 -- -- 75
2020-07-21 03:00:00 21.9 11 Sudeste 30 Este 0 -- -- 75
2020-07-21 02:00:00 22.1 14 Sudeste 32 Este 0 -- -- 75
2020-07-21 01:00:00 22.1 12 Este 32 Este 0 -- -- 75
2020-07-21 00:00:00 22.5 14 Este 39 Nordeste 0 -- -- 75
2020-07-20 23:00:00 22.6 22 Este 35 Este 0 -- -- 75
2020-07-20 22:00:00 22.6 15 Sudeste 27 Sudeste 0 -- -- 74
2020-07-20 21:00:00 23.2 14 Este 35 Este 0 -- -- 73
2020-07-20 20:00:00 24.1 18 Este 36 Nordeste 0 -- -- 73
2020-07-20 19:00:00 24.7 16 Este 37 Este 0 -- -- 69
2020-07-20 18:00:00 25.7 15 Este 36 Este 0 -- -- 67
2020-07-20 17:00:00 25.8 16 Nordeste 42 Nordeste 0 -- -- 67
2020-07-20 16:00:00 26.4 17 Nordeste 48 Nordeste 0 -- -- 66
2020-07-20 15:00:00 26.4 16 Nordeste 38 Nordeste 0 -- -- 66
2020-07-20 14:00:00 26.7 15 Este 41 Nordeste 0 -- -- 63
2020-07-20 13:00:00 25.8 19 Este 42 Nordeste 0 -- -- 67
2020-07-20 12:00:00 25.1 19 Nordeste 41 Nordeste 0 -- -- 71
2020-07-20 11:00:00 24.6 18 Nordeste 41 Nordeste 0 -- -- 73
2020-07-20 10:00:00 24.9 17 Este 36 Este 0 -- -- 71
2020-07-20 09:00:00 23.8 16 Este 30 Este 0 -- -- 74
2020-07-20 08:00:00 22.5 17 Sudeste 32 Sur 0 -- -- 77
2020-07-20 07:00:00 22.4 12 Sudeste 29 Sudeste 0 -- -- 76
2020-07-20 06:00:00 22.6 16 Sudeste 26 Sudeste 0 -- -- 77
2020-07-20 05:00:00 22.6 10 Sudeste 28 Sudeste 0 -- -- 77
2020-07-20 04:00:00 22.9 12 Sudeste 21 Este 0 -- -- 77
2020-07-20 03:00:00 23.1 9 Sudeste 17 Este 0 -- -- 75
2020-07-20 02:00:00 23.2 10 Este 19 Este 0 -- -- 68
2020-07-20 01:00:00 23.4 8 Sudeste 14 Este 0 -- -- 71
2020-07-20 00:00:00 23.8 10 Sudeste 18 Sudeste 0 -- -- 69
2020-07-19 23:00:00 24.2 8 Sudeste 18 Este 0 -- -- 66
2020-07-19 22:00:00 24.6 9 Sudeste 20 Este 0 -- -- 65
2020-07-19 21:00:00 25.2 8 Este 23 Este 0 -- -- 67
2020-07-19 20:00:00 26.2 14 Este 26 Este 0 -- -- 66
2020-07-19 19:00:00 26.8 10 Este 19 Nordeste 0 -- -- 67
2020-07-19 18:00:00 27.8 12 Este 19 Este 0 -- -- 62
2020-07-19 17:00:00 27.9 12 Este 18 Este 0 -- -- 62
2020-07-19 16:00:00 28.6 12 Este 17 Este 0 -- -- 57
2020-07-19 15:00:00 27.9 12 Este 19 Este 0 -- -- 63
2020-07-19 14:00:00 28 12 Este 21 Este 0 -- -- 63
2020-07-19 13:00:00 28.1 13 Este 19 Este 0 -- -- 59
2020-07-19 12:00:00 27.7 12 Este 17 Este 0 -- -- 61
2020-07-19 11:00:00 27.4 11 Este 16 Nordeste 0 -- -- 58
2020-07-19 10:00:00 26.6 8 Este 17 Nordeste 0 -- -- 59
2020-07-19 09:00:00 24.6 9 Este 12 Este 0 -- -- 67
2020-07-19 08:00:00 22.3 6 Sur 12 Sur 0 -- -- 73
2020-07-19 07:00:00 22.2 6 Sudeste 12 Este 0 -- -- 71
2020-07-19 06:00:00 22.9 5 Sudeste 15 Nordeste 0 -- -- 65
2020-07-19 05:00:00 23.3 4 Este 15 Nordeste 0 -- -- 61
2020-07-19 04:00:00 22.6 4 Sudeste 10 Sur 0 -- -- 60
2020-07-19 03:00:00 23 4 Este 13 Este 0 -- -- 67
2020-07-19 02:00:00 24.1 7 Sudeste 19 Nordeste 0 -- -- 63
2020-07-19 01:00:00 24.1 4 Nordeste 18 Nordeste 0 -- -- 65
2020-07-19 00:00:00 23.8 4 Sur 13 Sudoeste 0 -- -- 61
2020-07-18 23:00:00 23.4 5 Sur 9 Nordeste 0 -- -- 72
2020-07-18 22:00:00 23.9 9 Este 20 Este 0 -- -- 74
2020-07-18 21:00:00 24.6 11 Este 19 Este 0 -- -- 68
2020-07-18 20:00:00 25.5 9 Este 16 Este 0 -- -- 67
2020-07-18 19:00:00 26.3 10 Este 18 Este 0 -- -- 67
2020-07-18 18:00:00 26.7 11 Este 19 Este 0 -- -- 70
2020-07-18 17:00:00 27.1 13 Este 18 Este 0 -- -- 66
2020-07-18 16:00:00 26.4 13 Este 21 Nordeste 0 -- -- 71
2020-07-18 15:00:00 26.6 13 Este 18 Este 0 -- -- 71
2020-07-18 14:00:00 26.2 14 Este 18 Nordeste 0 -- -- 73
2020-07-18 13:00:00 25.5 10 Nordeste 15 Nordeste 0 -- -- 74
2020-07-18 12:00:00 25.1 9 Nordeste 16 Nordeste 0 -- -- 76
2020-07-18 11:00:00 24.3 10 Nordeste 15 Nordeste 0 -- -- 79
2020-07-18 10:00:00 23.4 4 Este 15 Norte 0 -- -- 82
2020-07-18 09:00:00 22.7 8 Nordeste 20 Nordeste 0 -- -- 83
2020-07-18 08:00:00 22 6 Noroeste 18 Noroeste 0 -- -- 85
2020-07-18 07:00:00 21.5 5 Oeste 9 Oeste 0 -- -- 86
2020-07-18 06:00:00 21.9 4 Sudeste 8 Sur 0 -- -- 85
2020-07-18 05:00:00 21.9 4 Este 9 Sudeste 0 -- -- 84
2020-07-18 04:00:00 21.8 6 Sudeste 11 Este 0 -- -- 83
2020-07-18 03:00:00 21.7 4 Sur 10 Sur 0 -- -- 80
2020-07-18 02:00:00 21.5 5 Sur 11 Sudeste 0 -- -- 79
2020-07-18 01:00:00 22.1 5 Sur 13 Nordeste 0 -- -- 81
2020-07-18 00:00:00 22.4 0 Calma 15 Este 0 -- -- 79
2020-07-17 23:00:00 22.7 3 Sudeste 18 Nordeste 0 -- -- 80
2020-07-17 22:00:00 22.9 5 Este 15 Este 0 -- -- 78
2020-07-17 21:00:00 23.2 10 Este 19 Este 0 -- -- 78
2020-07-17 20:00:00 23.6 10 Este 22 Nordeste 0 -- -- 77
2020-07-17 19:00:00 24.2 9 Este 23 Este 0 -- -- 75
2020-07-17 18:00:00 24.7 9 Este 17 Este 0 -- -- 73
2020-07-17 17:00:00 25 9 Este 15 Nordeste 0 -- -- 71
2020-07-17 16:00:00 25.4 11 Nordeste 17 Nordeste 0 -- -- 71
2020-07-17 15:00:00 25 10 Este 15 Este 0 -- -- 72
2020-07-17 14:00:00 24.3 8 Nordeste 13 Este 0 -- -- 74
2020-07-17 13:00:00 23.6 8 Este 18 Nordeste 0 -- -- 76
2020-07-17 12:00:00 22.9 8 Este 15 Nordeste 0 -- -- 78
2020-07-17 11:00:00 22.4 10 Nordeste 21 Nordeste 0 -- -- 79
2020-07-17 10:00:00 22.4 13 Nordeste 22 Nordeste 0 -- -- 80
2020-07-17 09:00:00 22.2 5 Nordeste 12 Este 0 -- -- 80
2020-07-17 08:00:00 22 3 Nordeste 12 Sur 0 -- -- 81
2020-07-17 07:00:00 21.8 8 Sudeste 23 Nordeste 0 -- -- 80
2020-07-17 06:00:00 21.8 11 Este 26 Nordeste 0 -- -- 83
2020-07-17 05:00:00 21.8 5 Nordeste 23 Nordeste 0 -- -- 82
2020-07-17 04:00:00 21.9 10 Nordeste 23 Nordeste 0 -- -- 83
2020-07-17 03:00:00 21.9 14 Nordeste 24 Nordeste 0 -- -- 82
2020-07-17 02:00:00 22.1 11 Nordeste 24 Nordeste 0 -- -- 81
2020-07-17 01:00:00 22.2 8 Este 19 Nordeste 0 -- -- 80
2020-07-17 00:00:00 22.3 8 Este 19 Este 0 -- -- 80
2020-07-16 23:00:00 22.4 11 Este 23 Nordeste 0 -- -- 79
2020-07-16 22:00:00 22.5 10 Este 22 Nordeste 0 -- -- 78
2020-07-16 21:00:00 22.9 11 Este 23 Este 0 -- -- 76
2020-07-16 20:00:00 23.6 12 Nordeste 23 Nordeste 0 -- -- 74
2020-07-16 19:00:00 24.1 13 Este 23 Nordeste 0 -- -- 72
2020-07-16 18:00:00 24.3 13 Este 24 Nordeste 0 -- -- 71
2020-07-16 17:00:00 24.2 13 Nordeste 24 Nordeste 0 -- -- 69
2020-07-16 16:00:00 24.8 12 Este 32 Nordeste 0 -- -- 69
2020-07-16 15:00:00 25.7 15 Nordeste 26 Nordeste 0 -- -- 65
2020-07-16 14:00:00 25.4 14 Nordeste 22 Nordeste 0 -- -- 67
2020-07-16 13:00:00 25.4 14 Nordeste 27 Nordeste 0 -- -- 66
2020-07-16 12:00:00 24.6 11 Nordeste 22 Nordeste 0 -- -- 69
2020-07-16 11:00:00 23 11 Nordeste 25 Este 0 -- -- 75
2020-07-16 10:00:00 22.4 12 Nordeste 23 Este 0 -- -- 75
2020-07-16 09:00:00 22.1 6 Nordeste 26 Nordeste 0 -- -- 77
2020-07-16 08:00:00 21.5 10 Nordeste 22 Este 0 -- -- 79
2020-07-16 07:00:00 21.4 8 Este 21 Nordeste 0 -- -- 77
2020-07-16 06:00:00 21.5 12 Este 24 Nordeste 0 -- -- 78
2020-07-16 05:00:00 21.5 11 Este 32 Nordeste 0 -- -- 79
2020-07-16 04:00:00 21.7 13 Nordeste 34 Nordeste 0 -- -- 79
2020-07-16 03:00:00 21.8 13 Nordeste 35 Nordeste 0 -- -- 79
2020-07-16 02:00:00 21.8 12 Este 26 Nordeste 0 -- -- 76
2020-07-16 01:00:00 22 10 Este 30 Nordeste 0 -- -- 77
2020-07-16 00:00:00 22.2 15 Este 40 Nordeste 0 -- -- 77
2020-07-15 23:00:00 22.3 20 Nordeste 36 Este 0 -- -- 77
2020-07-15 22:00:00 22.6 11 Sudeste 27 Este 0 -- -- 74
2020-07-15 21:00:00 23 12 Este 36 Nordeste 0 -- -- 75
2020-07-15 20:00:00 23.4 19 Nordeste 40 Nordeste 0 -- -- 74
2020-07-15 19:00:00 24.2 17 Este 32 Nordeste 0 -- -- 70
2020-07-15 18:00:00 25 14 Este 31 Nordeste 0 -- -- 69
2020-07-15 17:00:00 24.3 20 Nordeste 38 Nordeste 0 -- -- 71
2020-07-15 16:00:00 26.2 14 Este 37 Este 0 -- -- 63
2020-07-15 15:00:00 27.5 13 Este 31 Este 0 -- -- 59
2020-07-15 14:00:00 24.7 14 Nordeste 36 Nordeste 0 -- -- 68
2020-07-15 13:00:00 25.5 21 Nordeste 38 Nordeste 0 -- -- 65
2020-07-15 12:00:00 26.6 13 Este 26 Este 0 -- -- 62
2020-07-15 11:00:00 24.6 15 Nordeste 27 Nordeste 0 -- -- 68
2020-07-15 10:00:00 23.5 12 Este 29 Nordeste 0 -- -- 70
2020-07-15 09:00:00 23.6 13 Sudeste 28 Sudeste 0 -- -- 70
2020-07-15 08:00:00 21.1 11 Sudeste 17 Este 0 -- -- 74
2020-07-15 07:00:00 21.6 13 Este 29 Este 0 -- -- 77
2020-07-15 06:00:00 21.5 10 Este 27 Este 0 -- -- 80
2020-07-15 05:00:00 21.7 17 Nordeste 27 Este 0 -- -- 79
2020-07-15 04:00:00 21.9 11 Este 36 Este 0 -- -- 77
2020-07-15 03:00:00 21.8 23 Este 35 Este 0 -- -- 80
2020-07-15 02:00:00 21.9 16 Este 23 Nordeste 0 -- -- 79
2020-07-15 01:00:00 22.1 11 Sudeste 31 Este 0 -- -- 76
2020-07-15 00:00:00 22.5 15 Este 34 Nordeste 0 -- -- 78
2020-07-14 23:00:00 22.5 12 Este 23 Este 0 -- -- 77
2020-07-14 22:00:00 22.7 13 Este 33 Nordeste 0 -- -- 76
2020-07-14 21:00:00 23.1 18 Este 45 Nordeste 0 -- -- 73
2020-07-14 20:00:00 24 23 Este 35 Nordeste 0 -- -- 72
2020-07-14 19:00:00 24.4 13 Este 30 Nordeste 0 -- -- 71
2020-07-14 18:00:00 24.4 19 Nordeste 37 Nordeste 0 -- -- 72
2020-07-14 17:00:00 26.6 15 Este 28 Nordeste 0 -- -- 62
2020-07-14 16:00:00 25.9 13 Este 21 Este 0 -- -- 66
2020-07-14 15:00:00 25.3 9 Nordeste 22 Sudeste 0 -- -- 67
2020-07-14 14:00:00 24.6 15 Este 35 Este 0 -- -- 69
2020-07-14 13:00:00 23.8 21 Nordeste 35 Nordeste 0 -- -- 71
2020-07-14 12:00:00 24.1 15 Este 28 Nordeste 0 -- -- 70
2020-07-14 11:00:00 23.2 18 Nordeste 27 Nordeste 0 -- -- 71
2020-07-14 10:00:00 23.3 16 Este 35 Sudeste 0 -- -- 67
2020-07-14 09:00:00 22.1 15 Sudeste 23 Sudeste 0 -- -- 72
2020-07-14 08:00:00 21.1 8 Sudeste 18 Este 0 -- -- 76
2020-07-14 07:00:00 20.8 13 Este 23 Este 0 -- -- 77
2020-07-14 06:00:00 21 19 Este 27 Nordeste 0 -- -- 79
2020-07-14 05:00:00 20.9 12 Este 20 Nordeste 0 -- -- 79
2020-07-14 04:00:00 20.5 11 Sudeste 19 Sudeste 0 -- -- 79
2020-07-14 03:00:00 20.9 11 Este 27 Este 0 -- -- 78
2020-07-14 02:00:00 21.2 14 Este 31 Este 0 -- -- 78
2020-07-14 01:00:00 21.5 10 Sudeste 28 Este 0 -- -- 78
2020-07-14 00:00:00 21.9 14 Este 30 Nordeste 0 -- -- 80
2020-07-13 23:00:00 22 16 Nordeste 37 Este 0 -- -- 79
2020-07-13 22:00:00 22.3 20 Nordeste 33 Nordeste 0 -- -- 80
2020-07-13 21:00:00 22.8 14 Este 27 Este 0 -- -- 76
2020-07-13 20:00:00 23.4 11 Este 22 Este 0 -- -- 74
2020-07-13 19:00:00 23.9 11 Este 26 Nordeste 0 -- -- 73
2020-07-13 18:00:00 23.7 12 Este 30 Nordeste 0 -- -- 72
2020-07-13 17:00:00 24.6 16 Nordeste 31 Nordeste 0 -- -- 70
2020-07-13 16:00:00 24.9 15 Nordeste 29 Nordeste 0 -- -- 70
2020-07-13 15:00:00 24.7 15 Nordeste 27 Este 0 -- -- 69
2020-07-13 14:00:00 24.3 11 Nordeste 28 Nordeste 0 -- -- 71
2020-07-13 13:00:00 23.1 17 Nordeste 29 Nordeste 0 -- -- 75
2020-07-13 12:00:00 22.6 14 Nordeste 32 Este 0 -- -- 77
2020-07-13 11:00:00 22.4 17 Nordeste 31 Nordeste 0 -- -- 78
2020-07-13 10:00:00 22.3 11 Nordeste 24 Nordeste 0 -- -- 79
2020-07-13 09:00:00 21.7 10 Nordeste 24 Nordeste 0 -- -- 80
2020-07-13 08:00:00 21.5 10 Nordeste 24 Nordeste 0 -- -- 81
2020-07-13 07:00:00 21.4 11 Nordeste 34 Nordeste 0 -- -- 81
2020-07-13 06:00:00 21.5 16 Nordeste 31 Nordeste 0 -- -- 81
2020-07-13 05:00:00 21.6 12 Nordeste 26 Nordeste 0 -- -- 79
2020-07-13 04:00:00 21.7 14 Este 31 Este 0 -- -- 79
2020-07-13 03:00:00 21.8 14 Nordeste 36 Nordeste 0 -- -- 80
2020-07-13 02:00:00 22 16 Nordeste 37 Nordeste 0 -- -- 80
2020-07-13 01:00:00 22.2 13 Nordeste 26 Nordeste 0 -- -- 78
2020-07-13 00:00:00 22.3 11 Nordeste 26 Nordeste 0 -- -- 77
2020-07-12 23:00:00 22.4 13 Este 28 Este 0 -- -- 77
2020-07-12 22:00:00 22.6 15 Este 27 Este 0 -- -- 77
2020-07-12 21:00:00 23.2 9 Este 28 Nordeste 0 -- -- 76
2020-07-12 20:00:00 23.5 13 Este 32 Este 0 -- -- 74
2020-07-12 19:00:00 23.9 9 Este 30 Nordeste 0 -- -- 73
2020-07-12 18:00:00 24.2 9 Nordeste 21 Este 0 -- -- 71
2020-07-12 17:00:00 24.4 7 Este 21 Este 0 -- -- 70
2020-07-12 16:00:00 24.5 9 Este 30 Nordeste 0 -- -- 69
2020-07-12 15:00:00 24.7 11 Nordeste 32 Nordeste 0 -- -- 69
2020-07-12 14:00:00 24.6 12 Nordeste 34 Nordeste 0 -- -- 70
2020-07-12 13:00:00 24.4 13 Nordeste 24 Nordeste 0 -- -- 71
2020-07-12 12:00:00 23.5 10 Nordeste 30 Nordeste 0 -- -- 73
2020-07-12 11:00:00 22.9 14 Nordeste 37 Nordeste 0 -- -- 76
2020-07-12 10:00:00 23.6 15 Nordeste 30 Nordeste 0 -- -- 72
2020-07-12 09:00:00 23.4 3 Noroeste 11 Nordeste 0 -- -- 72
2020-07-12 08:00:00 21.8 4 Nordeste 16 Este 0 -- -- 77
2020-07-12 07:00:00 21.7 5 Sudeste 22 Nordeste 0 -- -- 76
2020-07-12 06:00:00 21.7 12 Este 22 Nordeste 0 -- -- 76
2020-07-12 05:00:00 21.5 5 Noroeste 22 Sudoeste 0 -- -- 75
2020-07-12 04:00:00 21.5 5 Sudeste 14 Sudeste 0 -- -- 75
2020-07-12 03:00:00 21.7 8 Este 21 Nordeste 0 -- -- 76
2020-07-12 02:00:00 21.8 10 Nordeste 31 Nordeste 0 -- -- 77
2020-07-12 01:00:00 21.8 8 Este 22 Nordeste 0 -- -- 77
2020-07-12 00:00:00 21.6 11 Sudeste 27 Este 0 -- -- 75
2020-07-11 23:00:00 21.9 14 Este 33 Este 0 -- -- 75
2020-07-11 22:00:00 22.1 18 Este 39 Nordeste 0 -- -- 78
2020-07-11 21:00:00 22.8 17 Este 29 Este 0 -- -- 76
2020-07-11 20:00:00 23.3 13 Este 28 Nordeste 0 -- -- 75
2020-07-11 19:00:00 23.5 15 Este 31 Nordeste 0 -- -- 72
2020-07-11 18:00:00 24 18 Este 29 Este 0 -- -- 72
2020-07-11 17:00:00 24.5 15 Nordeste 24 Nordeste 0 -- -- 70
2020-07-11 16:00:00 25.5 11 Este 24 Sudeste 0 -- -- 65
2020-07-11 15:00:00 24.8 14 Este 33 Nordeste 0 -- -- 70
2020-07-11 14:00:00 24.5 15 Nordeste 37 Nordeste 0 -- -- 68
2020-07-11 13:00:00 25.3 14 Este 25 Este 0 -- -- 66
2020-07-11 12:00:00 24.2 13 Este 30 Este 0 -- -- 70
2020-07-11 11:00:00 23 13 Este 33 Nordeste 0 -- -- 75
2020-07-11 10:00:00 23.8 11 Nordeste 24 Este 0 -- -- 72
2020-07-11 09:00:00 23.7 8 Este 19 Sudeste 0 -- -- 71
2020-07-11 08:00:00 21.9 9 Sudeste 23 Nordeste 0 -- -- 77
2020-07-11 07:00:00 21.7 15 Este 30 Este 0 -- -- 77
2020-07-11 06:00:00 21.7 9 Este 28 Este 0 -- -- 76
2020-07-11 05:00:00 21.8 10 Este 23 Este 0 -- -- 75
2020-07-11 04:00:00 21.8 12 Este 42 Este 0 -- -- 74
2020-07-11 03:00:00 21.9 16 Nordeste 31 Nordeste 0 -- -- 76
2020-07-11 02:00:00 21.9 12 Este 23 Este 0 -- -- 74
2020-07-11 01:00:00 21.9 11 Sudeste 22 Este 0 -- -- 76
2020-07-11 00:00:00 22.2 15 Este 35 Este 0 -- -- 74
2020-07-10 23:00:00 22.3 18 Este 29 Nordeste 0 -- -- 75
2020-07-10 22:00:00 22.5 12 Este 22 Este 0 -- -- 74
2020-07-10 21:00:00 22.7 17 Este 32 Nordeste 0 -- -- 74
2020-07-10 20:00:00 23.5 19 Este 40 Este 0 -- -- 73
2020-07-10 19:00:00 23.8 12 Este 26 Este 0 -- -- 71
2020-07-10 18:00:00 24.5 12 Sudeste 32 Nordeste 0 -- -- 69
2020-07-10 17:00:00 23.6 18 Nordeste 38 Este 0 -- -- 72
2020-07-10 16:00:00 24.2 21 Nordeste 38 Este 0 -- -- 72
2020-07-10 15:00:00 25.8 11 Este 24 Este 0 -- -- 64
2020-07-10 14:00:00 25 10 Este 28 Este 0 -- -- 68
2020-07-10 13:00:00 23.8 14 Este 39 Nordeste 0 -- -- 72
2020-07-10 12:00:00 23.4 22 Nordeste 37 Nordeste 0 -- -- 72
2020-07-10 11:00:00 23.4 17 Este 33 Nordeste 0 -- -- 72
2020-07-10 10:00:00 22.4 16 Nordeste 26 Este 0 -- -- 78
2020-07-10 09:00:00 22.1 14 Este 37 Este 0 -- -- 78
2020-07-10 08:00:00 21.5 10 Este 32 Nordeste 0 -- -- 78
2020-07-10 07:00:00 21.3 7 Este 24 Sur 0 -- -- 78
2020-07-10 06:00:00 21 12 Sudeste 21 Este 0 -- -- 79
2020-07-10 05:00:00 21 9 Sudeste 17 Sudeste 0 -- -- 79
2020-07-10 04:00:00 21.2 12 Este 27 Este 0 -- -- 80
2020-07-10 03:00:00 21.4 9 Sudeste 22 Este 0 -- -- 79
2020-07-10 02:00:00 21.6 9 Sudeste 21 Sudeste 0 -- -- 80
2020-07-10 01:00:00 21.7 12 Sudeste 21 Sudeste 0 -- -- 79
2020-07-10 00:00:00 21.7 7 Sudeste 27 Este 0 -- -- 79
2020-07-09 23:00:00 22.1 9 Este 18 Este 0 -- -- 79
2020-07-09 22:00:00 22.5 11 Sudeste 26 Este 0 -- -- 78
2020-07-09 21:00:00 22.7 14 Este 37 Este 0 -- -- 77
2020-07-09 20:00:00 23.1 11 Este 28 Nordeste 0 -- -- 76
2020-07-09 19:00:00 24 13 Este 27 Nordeste 0 -- -- 74
2020-07-09 18:00:00 24.4 10 Este 25 Este 0 -- -- 73
2020-07-09 17:00:00 24.6 11 Este 35 Este 0 -- -- 72
2020-07-09 16:00:00 25.3 15 Nordeste 28 Nordeste 0 -- -- 70
2020-07-09 15:00:00 25.4 12 Este 28 Este 0 -- -- 71
2020-07-09 14:00:00 25 16 Este 31 Este 0 -- -- 71
2020-07-09 13:00:00 25.2 13 Este 37 Nordeste 0 -- -- 70
2020-07-09 12:00:00 24.4 18 Nordeste 35 Nordeste 0 -- -- 72
2020-07-09 11:00:00 23.8 19 Nordeste 31 Este 0 -- -- 74
2020-07-09 10:00:00 23.8 9 Sudeste 24 Este 0 -- -- 73
2020-07-09 09:00:00 22.3 9 Noroeste 21 Noroeste 0 -- -- 78
2020-07-09 08:00:00 21.4 10 Sur 21 Este 0 -- -- 84
2020-07-09 07:00:00 21.5 5 Sudeste 20 Sur 0 -- -- 84
2020-07-09 06:00:00 21.5 6 Oeste 21 Nordeste 0 -- -- 83
2020-07-09 05:00:00 21.5 7 Noroeste 14 Oeste 0 -- -- 82
2020-07-09 04:00:00 21.8 5 Sudoeste 17 Norte 0 -- -- 83
2020-07-09 03:00:00 22.1 6 Sudeste 23 Este 0 -- -- 83
2020-07-09 02:00:00 22.1 5 Oeste 23 Sur 0 -- -- 82
2020-07-09 01:00:00 22.2 9 Sudeste 15 Sudeste 0 -- -- 81
2020-07-09 00:00:00 22.5 6 Este 15 Este 0 -- -- 80
2020-07-08 23:00:00 22.9 9 Sudeste 20 Sudeste 0 -- -- 79
2020-07-08 22:00:00 23 8 Sudeste 23 Este 0 -- -- 78
2020-07-08 21:00:00 23.5 9 Este 20 Sudeste 0 -- -- 77
2020-07-08 20:00:00 24.4 10 Este 20 Este 0 -- -- 75
2020-07-08 19:00:00 24.8 12 Este 25 Este 0 -- -- 74
2020-07-08 18:00:00 25.2 13 Este 25 Nordeste 0 -- -- 72
2020-07-08 17:00:00 26.1 13 Este 28 Este 0 -- -- 69
2020-07-08 16:00:00 26.2 11 Este 25 Nordeste 0 -- -- 69
2020-07-08 15:00:00 25.8 15 Nordeste 23 Nordeste 0 -- -- 70
2020-07-08 14:00:00 25.4 14 Este 25 Este 0 -- -- 71
2020-07-08 13:00:00 25.3 13 Este 31 Nordeste 0 -- -- 72
2020-07-08 12:00:00 24.3 16 Nordeste 45 Nordeste 0 -- -- 76
2020-07-08 11:00:00 23.8 16 Nordeste 36 Nordeste 0 -- -- 77
2020-07-08 10:00:00 23.3 13 Nordeste 23 Nordeste 0 -- -- 80
2020-07-08 09:00:00 22.3 4 Norte 19 Nordeste 0 -- -- 84
2020-07-08 08:00:00 21.5 3 Nordeste 19 Sudoeste 0 -- -- 86
2020-07-08 07:00:00 21.5 3 Norte 16 Sudoeste 0 -- -- 86
2020-07-08 06:00:00 21.3 4 Sudeste 8 Norte 0 -- -- 84
2020-07-08 05:00:00 21.8 4 Sudeste 14 Este 0 -- -- 85
2020-07-08 04:00:00 21.9 5 Este 17 Nordeste 0 -- -- 86
2020-07-08 03:00:00 21.9 9 Este 24 Nordeste 0 -- -- 86
2020-07-08 02:00:00 22.1 7 Este 21 Este 0 -- -- 84
2020-07-08 01:00:00 22.3 8 Nordeste 26 Este 0 -- -- 85
2020-07-08 00:00:00 22.5 5 Este 17 Nordeste 0 -- -- 83